Time;durP1;ratioP1;P1;durP2;ratioP2;P2;SDS_P1;SDS_P2;PMS_P1;PMS_P2;Temp;Humidity;BMP_temperature;BMP_pressure;BME280_temperature;BME280_humidity;BME280_pressure;Samples;Min_cycle;Max_cycle;Signal;HPM_P1;HPM_P2
2024/01/29 00:00:59;;;;;;;;;;;5.60;99.90;;;;;;8454331;28;19919;-74
2024/01/29 00:05:01;;;;;;;;;;;5.70;99.90;;;;;;8433739;28;19926;-74
2024/01/29 00:09:03;;;;;;;;;;;5.60;99.90;;;;;;8453175;28;19945;-74
2024/01/29 00:13:05;;;;;;;;;;;5.60;99.90;;;;;;8452675;28;19927;-74
2024/01/29 00:22:10;;;;;;;;;;;5.60;99.90;;;;;;8451000;28;19954;-74
2024/01/29 00:26:11;;;;;;;;;;;5.60;99.90;;;;;;8452311;28;20329;-74
2024/01/29 00:30:13;;;;;;;;;;;5.50;99.90;;;;;;8461375;28;19919;-74
2024/01/29 00:34:15;;;;;;;;;;;5.50;99.90;;;;;;8444808;28;20428;-74
2024/01/29 00:38:20;;;;;;;;;;;5.50;99.90;;;;;;8461925;28;20475;-74
2024/01/29 00:42:21;;;;;;;;;;;5.50;99.90;;;;;;8438121;28;20085;-74
2024/01/29 00:46:23;;;;;;;;;;;5.50;99.90;;;;;;8456126;27;19926;-74
2024/01/29 00:50:25;;;;;;;;;;;5.50;99.90;;;;;;8442978;28;20439;-74
2024/01/29 00:54:26;;;;;;;;;;;5.50;99.90;;;;;;8455560;27;19926;-74
2024/01/29 00:58:28;;;;;;;;;;;5.50;99.90;;;;;;8460758;28;19928;-74
2024/01/29 01:02:30;;;;;;;;;;;5.50;99.90;;;;;;8453590;28;19932;-74
2024/01/29 01:06:32;;;;;;;;;;;5.50;99.90;;;;;;8460258;28;19927;-74
2024/01/29 01:10:33;;;;;;;;;;;5.50;99.90;;;;;;8461105;28;19927;-74
2024/01/29 01:14:35;;;;;;;;;;;5.50;99.90;;;;;;8461244;28;20258;-74
2024/01/29 01:18:37;;;;;;;;;;;5.50;99.90;;;;;;8455782;28;19920;-74
2024/01/29 01:22:38;;;;;;;;;;;5.50;99.90;;;;;;8440822;28;20274;-74
2024/01/29 01:26:40;;;;;;;;;;;5.50;99.90;;;;;;8432811;28;20294;-74
2024/01/29 01:30:42;;;;;;;;;;;5.40;99.90;;;;;;8445635;28;20282;-74
2024/01/29 01:39:30;;;;;;;;;;;5.30;99.90;;;;;;8461242;28;19920;-74
2024/01/29 01:43:32;;;;;;;;;;;5.30;99.90;;;;;;8442669;28;19920;-75
2024/01/29 01:47:35;;;;;;;;;;;5.30;99.90;;;;;;8455792;27;19927;-74
2024/01/29 01:51:37;;;;;;;;;;;5.20;99.90;;;;;;8437783;28;19962;-75
2024/01/29 01:55:39;;;;;;;;;;;5.20;99.90;;;;;;8454104;28;19919;-74
2024/01/29 01:59:40;;;;;;;;;;;5.10;99.90;;;;;;8459664;28;19919;-74
2024/01/29 02:03:43;;;;;;;;;;;5.10;99.90;;;;;;8446539;28;20026;-74
2024/01/29 02:07:45;;;;;;;;;;;5.00;99.90;;;;;;8444580;28;19927;-74
2024/01/29 02:11:47;;;;;;;;;;;4.90;99.90;;;;;;8457716;28;20356;-74
2024/01/29 02:15:49;;;;;;;;;;;4.80;99.90;;;;;;8456433;28;19920;-74
2024/01/29 02:19:51;;;;;;;;;;;4.70;99.90;;;;;;8460927;28;19919;-74
2024/01/29 02:23:52;;;;;;;;;;;4.60;99.90;;;;;;8442905;28;19919;-74
2024/01/29 02:27:54;;;;;;;;;;;4.60;99.90;;;;;;8431141;28;19931;-74
2024/01/29 02:31:56;;;;;;;8.50;4.53;;;4.50;99.90;;;;;;8439894;28;19972;-74
2024/01/29 02:35:58;;;;;;;9.98;4.35;;;4.40;99.90;;;;;;8457903;28;20043;-74
2024/01/29 02:39:59;;;;;;;7.55;4.10;;;4.40;99.90;;;;;;8441661;28;20062;-74
2024/01/29 02:44:01;;;;;;;8.68;4.22;;;4.30;99.90;;;;;;8436774;28;20058;-77
2024/01/29 02:48:04;;;;;;;7.03;4.07;;;4.30;99.90;;;;;;8449395;28;20115;-74
2024/01/29 02:52:06;;;;;;;8.40;4.15;;;4.30;99.90;;;;;;8445935;28;20153;-74
2024/01/29 02:56:08;;;;;;;7.72;4.32;;;4.30;99.90;;;;;;8455315;28;20090;-74
2024/01/29 03:00:10;;;;;;;8.10;4.47;;;4.20;99.90;;;;;;8433196;28;20051;-74
2024/01/29 03:04:12;;;;;;;7.07;4.07;;;4.20;99.90;;;;;;8455501;28;20047;-74
2024/01/29 03:08:14;;;;;;;7.53;4.20;;;4.20;99.90;;;;;;8449567;28;20406;-74
2024/01/29 03:12:16;;;;;;;7.75;4.57;;;4.20;99.90;;;;;;8457371;28;20109;-74
2024/01/29 03:16:18;;;;;;;11.43;4.40;;;4.10;99.90;;;;;;8450473;28;20451;-74
2024/01/29 03:20:19;;;;;;;7.80;3.80;;;4.10;99.90;;;;;;8448683;28;20460;-74
2024/01/29 03:24:21;;;;;;;8.13;4.00;;;4.00;99.90;;;;;;8441077;28;20108;-74
2024/01/29 03:28:23;;;;;;;8.25;4.15;;;4.00;99.90;;;;;;8415219;28;20100;-74
2024/01/29 03:32:25;;;;;;;7.20;4.32;;;3.90;99.90;;;;;;8453027;28;20469;-74
2024/01/29 03:36:27;;;;;;;10.15;4.40;;;3.90;99.90;;;;;;8437864;28;20047;-74
2024/01/29 03:40:29;;;;;;;8.77;4.55;;;3.90;99.90;;;;;;8436659;28;20048;-74
2024/01/29 03:44:31;;;;;;;8.13;3.83;;;3.80;99.90;;;;;;8458300;28;20092;-74
2024/01/29 03:48:33;;;;;;;8.75;4.10;;;3.80;99.90;;;;;;8455357;28;20044;-74
2024/01/29 03:52:34;;;;;;;9.85;4.55;;;3.70;99.90;;;;;;8445976;28;20035;-74
2024/01/29 03:56:36;;;;;;;8.23;4.53;;;3.60;99.90;;;;;;8457161;28;20039;-74
2024/01/29 04:00:38;;;;;;;6.53;3.90;;;3.50;99.90;;;;;;8436425;28;20052;-74
2024/01/29 04:04:43;;;;;;;7.15;3.97;;;3.40;99.90;;;;;;8458192;28;20119;-74
2024/01/29 04:08:45;;;;;;;8.38;4.47;;;3.40;99.90;;;;;;8455263;28;20088;-74
2024/01/29 04:12:47;;;;;;;8.88;4.28;;;3.40;99.90;;;;;;8462322;28;20047;-74
2024/01/29 04:16:49;;;;;;;9.18;4.72;;;3.30;99.90;;;;;;8460278;28;20047;-74
2024/01/29 04:20:52;;;;;;;6.85;3.90;;;3.30;99.90;;;;;;8451783;28;20047;-74
2024/01/29 04:24:54;;;;;;;9.02;4.57;;;3.20;99.90;;;;;;8437987;28;20063;-74
2024/01/29 04:28:56;;;;;;;7.68;4.05;;;3.20;99.90;;;;;;8450977;28;20044;-74
2024/01/29 04:32:57;;;;;;;6.47;3.75;;;3.20;99.90;;;;;;8460237;28;20047;-73
2024/01/29 04:36:59;;;;;;;9.18;4.40;;;3.30;99.90;;;;;;8448539;28;20043;-73
2024/01/29 04:41:01;;;;;;;8.23;4.63;;;3.30;99.90;;;;;;8460079;28;20040;-73
2024/01/29 04:45:03;;;;;;;8.98;3.92;;;3.30;99.90;;;;;;8452476;28;20531;-74
2024/01/29 04:49:05;;;;;;;8.57;4.70;;;3.30;99.90;;;;;;8460573;28;20047;-74
2024/01/29 04:53:07;;;;;;;9.88;4.15;;;3.30;99.90;;;;;;8447485;28;20055;-74
2024/01/29 04:57:09;;;;;;;10.35;4.30;;;3.40;99.90;;;;;;8459788;28;20043;-74
2024/01/29 05:01:11;;;;;;;7.70;4.45;;;3.40;99.90;;;;;;8452787;28;20044;-74
2024/01/29 05:05:14;;;;;;;11.48;4.45;;;3.40;99.90;;;;;;8458586;28;20396;-74
2024/01/29 05:09:17;;;;;;;8.50;4.35;;;3.40;99.90;;;;;;8457806;28;20483;-74
2024/01/29 05:13:21;;;;;;;8.63;4.22;;;3.40;99.90;;;;;;8443485;27;20337;-74
2024/01/29 05:22:57;;;;;;;7.38;4.20;;;3.50;99.90;;;;;;8462703;27;20047;-74
2024/01/29 05:26:59;;;;;;;9.88;4.60;;;3.50;99.90;;;;;;8451560;27;20048;-73
2024/01/29 05:31:01;;;;;;;8.98;4.70;;;3.50;99.90;;;;;;8466219;27;20052;-73
2024/01/29 05:35:04;;;;;;;8.10;3.90;;;3.50;99.90;;;;;;8463585;27;20082;-74
2024/01/29 05:39:05;;;;;;;;;;;3.40;99.90;;;;;;8449415;27;19966;-74
2024/01/29 05:43:10;;;;;;;8.30;4.25;;;3.40;99.90;;;;;;8454199;27;19924;-73
2024/01/29 05:47:12;;;;;;;7.32;4.22;;;3.40;99.90;;;;;;8466194;27;20479;-74
2024/01/29 05:51:14;;;;;;;7.97;4.57;;;3.40;99.90;;;;;;8467769;27;20100;-74
2024/01/29 05:55:16;;;;;;;9.18;4.28;;;3.40;99.90;;;;;;8464567;27;20047;-74
2024/01/29 05:59:18;;;;;;;8.85;4.85;;;3.40;99.90;;;;;;8467116;27;20066;-74
2024/01/29 06:03:20;;;;;;;7.07;4.20;;;3.50;99.90;;;;;;8445872;28;20051;-74
2024/01/29 06:07:21;;;;;;;9.07;4.13;;;3.50;99.90;;;;;;8438271;27;20513;-74
2024/01/29 06:11:23;;;;;;;8.52;4.78;;;3.50;99.90;;;;;;8457801;27;20043;-73
2024/01/29 06:20:49;;;;;;;7.80;4.03;;;3.60;99.90;;;;;;8456455;28;20406;-74
2024/01/29 06:24:51;;;;;;;8.60;3.75;;;3.60;99.90;;;;;;8453479;28;20101;-74
2024/01/29 06:34:18;;;;;;;9.82;4.07;;;3.70;99.90;;;;;;8457594;28;20060;-73
2024/01/29 06:38:20;;;;;;;7.28;3.67;;;3.70;99.90;;;;;;8452269;28;20115;-73
2024/01/29 06:42:22;;;;;;;8.07;4.47;;;3.70;99.90;;;;;;8455802;28;20116;-74
2024/01/29 06:46:24;;;;;;;7.78;4.07;;;3.70;99.90;;;;;;8433853;28;20055;-74
2024/01/29 06:50:25;;;;;;;7.93;4.38;;;3.70;99.90;;;;;;8432519;28;20652;-74
2024/01/29 06:54:49;;;;;;;7.63;4.10;;;3.70;99.90;;;;;;8454821;27;20054;-74
2024/01/29 06:58:51;;;;;;;6.97;4.20;;;3.80;99.90;;;;;;8460203;27;20058;-74
2024/01/29 07:02:52;;;;;;;6.50;3.95;;;3.70;99.90;;;;;;8456740;28;20043;-74
2024/01/29 07:06:55;;;;;;;10.10;4.32;;;3.70;99.90;;;;;;8441720;28;20048;-73
2024/01/29 07:10:56;;;;;;;7.75;4.43;;;3.70;99.90;;;;;;8455820;28;20122;-73
2024/01/29 07:14:58;;;;;;;8.05;4.40;;;3.60;99.90;;;;;;8460139;28;20051;-74
2024/01/29 07:19:00;;;;;;;9.77;4.60;;;3.60;99.90;;;;;;8448072;28;20047;-73
2024/01/29 07:23:02;;;;;;;7.60;4.22;;;3.50;99.90;;;;;;8460441;28;20067;-73
2024/01/29 07:27:04;;;;;;;9.20;4.38;;;3.50;99.90;;;;;;8452373;28;20123;-74
2024/01/29 07:31:06;;;;;;;8.77;4.38;;;3.60;99.90;;;;;;8459744;28;20061;-73
2024/01/29 07:35:09;;;;;;;9.70;4.35;;;3.60;99.90;;;;;;8449965;28;20143;-73
2024/01/29 07:39:12;;;;;;;8.40;4.70;;;3.60;99.90;;;;;;8460431;28;20391;-74
2024/01/29 07:43:14;;;;;;;9.65;4.22;;;3.60;99.90;;;;;;8451397;28;20059;-74
2024/01/29 07:47:16;;;;;;;10.10;4.28;;;3.60;99.90;;;;;;8448758;28;20124;-74
2024/01/29 07:51:21;;;;;;;9.07;4.85;;;3.70;99.90;;;;;;8460115;28;20487;-74
2024/01/29 07:55:23;;;;;;;8.82;3.95;;;3.70;99.90;;;;;;8457872;28;20536;-73
2024/01/29 07:59:25;;;;;;;8.32;4.25;;;3.80;99.90;;;;;;8444105;28;20367;-74
2024/01/29 08:03:26;;;;;;;8.40;4.18;;;3.80;99.90;;;;;;8453223;28;20055;-74
2024/01/29 08:07:28;;;;;;;7.15;4.03;;;3.90;99.90;;;;;;8455715;28;20403;-73
2024/01/29 08:11:31;;;;;;;8.60;4.30;;;3.90;99.90;;;;;;8446057;28;20084;-74
2024/01/29 08:15:33;;;;;;;8.00;4.05;;;4.00;99.90;;;;;;8459062;28;20075;-74
2024/01/29 08:19:35;;;;;;;8.57;4.25;;;4.00;99.90;;;;;;8456390;28;20054;-74
2024/01/29 08:23:37;;;;;;;7.57;4.28;;;4.10;99.90;;;;;;8458877;28;20077;-73
2024/01/29 08:27:39;;;;;;;7.55;4.10;;;4.10;99.90;;;;;;8438482;28;20422;-73
2024/01/29 08:31:41;;;;;;;9.52;4.20;;;4.10;99.90;;;;;;8458491;28;20120;-74
2024/01/29 08:35:45;;;;;;;8.73;4.47;;;4.20;99.90;;;;;;8456326;28;20047;-74
2024/01/29 08:39:46;;;;;;;9.40;4.90;;;4.20;99.90;;;;;;8460767;28;20097;-73
2024/01/29 08:43:48;;;;;;;8.32;4.28;;;4.40;99.90;;;;;;8456708;28;20056;-74
2024/01/29 08:47:50;;;;;;;8.60;4.50;;;4.40;99.90;;;;;;8463862;28;20415;-74
2024/01/29 08:51:52;;;;;;;10.30;4.70;;;4.50;99.90;;;;;;8466390;28;20071;-74
2024/01/29 08:55:54;;;;;;;8.85;4.13;;;4.60;99.90;;;;;;8460427;28;20055;-74
2024/01/29 08:59:57;;;;;;;8.73;4.60;;;4.70;99.90;;;;;;8445726;28;20100;-74
2024/01/29 09:03:59;;;;;;;8.40;4.68;;;4.80;99.90;;;;;;8457194;28;20047;-74
2024/01/29 09:08:01;;;;;;;7.90;4.30;;;4.90;99.90;;;;;;8454215;28;20051;-74
2024/01/29 09:12:16;;;;;;;8.95;5.40;;;5.00;99.90;;;;;;8449090;28;20043;-74
2024/01/29 09:16:18;;;;;;;10.02;4.90;;;5.20;99.90;;;;;;8461721;28;20065;-74
2024/01/29 09:20:20;;;;;;;10.25;4.70;;;5.30;99.90;;;;;;8457921;27;20055;-74
2024/01/29 09:24:22;;;;;;;9.13;4.72;;;5.40;99.90;;;;;;8458387;28;20629;-74
2024/01/29 09:28:23;;;;;;;8.73;5.05;;;5.70;99.90;;;;;;8445585;28;20047;-74
2024/01/29 09:32:26;;;;;;;9.65;5.60;;;5.90;99.90;;;;;;8462026;28;20051;-74
2024/01/29 09:36:28;;;;;;;8.70;5.03;;;6.20;99.90;;;;;;8464584;28;20475;-74
2024/01/29 09:40:33;;;;;;;8.90;5.20;;;6.30;99.90;;;;;;8458794;28;20174;-74
2024/01/29 09:44:39;;;;;;;8.20;4.93;;;6.30;99.90;;;;;;8463212;27;20055;-74
2024/01/29 09:48:41;;;;;;;8.68;4.25;;;6.30;99.90;;;;;;8463802;28;20395;-74
2024/01/29 09:52:45;;;;;;;8.73;4.85;;;6.40;99.90;;;;;;8458851;28;20042;-74
2024/01/29 09:56:47;;;;;;;10.45;5.65;;;6.50;99.90;;;;;;8463867;27;20040;-74
2024/01/29 10:00:50;;;;;;;10.43;5.25;;;6.60;99.90;;;;;;8463164;28;20452;-74
2024/01/29 10:04:52;;;;;;;9.52;5.22;;;6.70;99.90;;;;;;8453846;28;20615;-73
2024/01/29 10:08:54;;;;;;;8.10;4.78;;;6.90;99.90;;;;;;8463395;28;20498;-74
2024/01/29 10:13:03;;;;;;;9.60;5.72;;;7.10;99.90;;;;;;8444844;28;20479;-74
2024/01/29 10:17:05;;;;;;;9.73;5.63;;;7.40;99.90;;;;;;8463179;28;20063;-74
2024/01/29 10:21:08;;;;;;;9.65;5.38;;;7.60;99.90;;;;;;8454300;27;20479;-75
2024/01/29 10:25:13;;;;;;;10.52;5.85;;;7.70;99.90;;;;;;8459622;28;20119;-74
2024/01/29 10:29:18;;;;;;;11.48;6.43;;;8.00;99.90;;;;;;8462739;28;20104;-74
2024/01/29 10:33:21;;;;;;;12.45;6.63;;;8.20;99.90;;;;;;8461598;27;20168;-74
2024/01/29 10:37:26;;;;;;;11.57;6.72;;;8.30;99.90;;;;;;8458482;28;20052;-74
2024/01/29 10:41:31;;;;;;;10.32;6.38;;;8.50;99.90;;;;;;8459619;28;20384;-74
2024/01/29 10:45:39;;;;;;;13.00;6.47;;;8.60;99.90;;;;;;8461644;28;20043;-74
2024/01/29 10:49:43;;;;;;;13.45;7.70;;;8.80;99.90;;;;;;8461528;28;20040;-73
2024/01/29 10:53:47;;;;;;;11.90;7.25;;;9.00;99.90;;;;;;8459590;27;20126;-74
2024/01/29 10:57:50;;;;;;;9.95;5.88;;;9.30;99.90;;;;;;8442444;28;20540;-74
2024/01/29 11:01:54;;;;;;;10.23;6.72;;;9.80;99.90;;;;;;8449446;28;20048;-73
2024/01/29 11:06:25;;;;;;;12.48;7.15;;;10.20;99.90;;;;;;8456878;28;20061;-74
2024/01/29 11:10:30;;;;;;;12.15;6.28;;;10.70;99.90;;;;;;8461467;28;20043;-74
2024/01/29 11:14:32;;;;;;;11.63;7.47;;;11.10;99.90;;;;;;8433672;28;20407;-74
2024/01/29 11:18:34;;;;;;;12.20;7.32;;;11.50;99.90;;;;;;8455832;28;20051;-74
2024/01/29 11:22:37;;;;;;;12.50;8.10;;;11.80;99.90;;;;;;8451754;28;20383;-74
2024/01/29 11:26:39;;;;;;;12.07;7.20;;;12.20;99.90;;;;;;8458447;28;20058;-75
2024/01/29 11:30:48;;;;;;;11.13;6.93;;;12.50;99.90;;;;;;8449480;28;20123;-74
2024/01/29 11:34:56;;;;;;;12.15;8.27;;;12.80;99.90;;;;;;8461164;28;20044;-74
2024/01/29 11:39:07;;;;;;;11.25;7.82;;;12.90;99.90;;;;;;8450231;28;20062;-75
2024/01/29 11:43:08;;;;;;;12.35;7.35;;;13.20;99.90;;;;;;8441827;28;20056;-75
2024/01/29 11:47:10;;;;;;;14.18;8.38;;;13.60;99.90;;;;;;8457208;28;20495;-74
2024/01/29 11:51:12;;;;;;;11.73;7.88;;;13.90;99.90;;;;;;8449948;28;20529;-74
2024/01/29 11:55:14;;;;;;;10.73;7.93;;;14.00;99.90;;;;;;8454062;28;20043;-74
2024/01/29 11:59:17;;;;;;;11.88;8.13;;;14.20;99.90;;;;;;8452993;28;20091;-74
2024/01/29 12:03:27;;;;;;;11.30;7.50;;;14.40;99.90;;;;;;8451408;28;20507;-74
2024/01/29 12:07:29;;;;;;;9.88;7.05;;;14.40;99.90;;;;;;8453118;28;20072;-74
2024/01/29 12:11:31;;;;;;;11.13;7.85;;;14.40;99.90;;;;;;8438616;28;20120;-74
2024/01/29 12:15:32;;;;;;;12.45;7.35;;;14.40;99.90;;;;;;8459308;28;20069;-74
2024/01/29 12:19:34;;;;;;;11.18;6.82;;;14.60;99.90;;;;;;8462065;27;20079;-74
2024/01/29 12:23:37;;;;;;;13.07;7.68;;;14.90;99.90;;;;;;8450856;28;20075;-74
2024/01/29 12:27:40;;;;;;;13.43;7.93;;;14.90;99.90;;;;;;8458343;28;20097;-74
2024/01/29 12:31:42;;;;;;;10.90;7.47;;;14.60;99.90;;;;;;8436785;28;20039;-74
2024/01/29 12:35:44;;;;;;;11.57;7.90;;;14.40;99.90;;;;;;8412400;28;20058;-74
2024/01/29 12:39:56;;;;;;;11.57;7.43;;;14.60;99.90;;;;;;8442856;28;20048;-74
2024/01/29 12:44:09;;;;;;;12.45;7.90;;;14.70;99.90;;;;;;8424511;28;20059;-74
2024/01/29 12:48:12;;;;;;;11.90;7.40;;;14.80;99.90;;;;;;8431139;28;20130;-73
2024/01/29 12:52:15;;;;;;;11.80;7.65;;;15.00;99.90;;;;;;8429700;27;20554;-74
2024/01/29 12:56:17;;;;;;;10.90;7.80;;;15.00;99.90;;;;;;8427747;28;20058;-74
2024/01/29 13:00:20;;;;;;;11.82;7.57;;;14.80;99.90;;;;;;8409017;28;20040;-74
2024/01/29 13:04:22;;;;;;;12.93;9.20;;;14.70;99.90;;;;;;8422142;28;20112;-74
2024/01/29 13:08:26;;;;;;;12.50;7.50;;;14.70;99.90;;;;;;8412899;28;20066;-74
2024/01/29 13:12:28;;;;;;;12.20;7.90;;;15.00;99.90;;;;;;8429667;28;20050;-74
2024/01/29 13:16:30;;;;;;;11.07;7.45;;;15.00;99.90;;;;;;8436737;28;20074;-74
2024/01/29 13:20:36;;;;;;;10.98;7.13;;;15.20;99.90;;;;;;8431761;27;20058;-74
2024/01/29 13:24:38;;;;;;;13.65;8.23;;;15.40;99.90;;;;;;8439196;28;20089;-74
2024/01/29 13:28:41;;;;;;;11.95;7.60;;;15.60;99.90;;;;;;8421512;28;20058;-74
2024/01/29 13:32:43;;;;;;;11.60;7.38;;;15.90;99.90;;;;;;8435860;28;20044;-74
2024/01/29 13:36:48;;;;;;;10.52;7.40;;;15.90;99.90;;;;;;8417363;28;20652;-75
2024/01/29 13:40:50;;;;;;;12.45;8.25;;;15.60;99.90;;;;;;8424096;28;20427;-74
2024/01/29 13:44:57;;;;;;;11.88;7.40;;;15.20;99.90;;;;;;8425757;28;20052;-74
2024/01/29 13:49:01;;;;;;;11.50;7.05;;;14.90;99.90;;;;;;8419868;28;20059;-74
2024/01/29 13:53:03;;;;;;;9.18;6.13;;;14.70;99.90;;;;;;8414449;28;20054;-74
2024/01/29 13:57:05;;;;;;;10.50;6.65;;;14.40;99.90;;;;;;8429449;28;20105;-74
2024/01/29 14:01:07;;;;;;;9.90;5.93;;;14.20;99.90;;;;;;8434324;27;20083;-74
2024/01/29 14:05:10;;;;;;;10.63;6.32;;;14.10;99.90;;;;;;8424659;27;20070;-74
2024/01/29 14:09:12;;;;;;;10.88;6.75;;;13.90;99.90;;;;;;8429012;28;20040;-74
2024/01/29 14:13:16;;;;;;;9.45;6.38;;;13.80;99.90;;;;;;8410468;28;20058;-74
2024/01/29 14:17:18;;;;;;;13.00;7.05;;;13.70;99.90;;;;;;8422159;28;20502;-74
2024/01/29 14:21:20;;;;;;;11.38;7.03;;;13.70;99.90;;;;;;8424375;28;20056;-74
2024/01/29 14:25:22;;;;;;;10.55;6.40;;;13.60;99.90;;;;;;8426016;28;20366;-74
2024/01/29 14:29:24;;;;;;;11.32;6.95;;;13.50;99.90;;;;;;8402785;28;20036;-74
2024/01/29 14:33:26;;;;;;;9.65;7.10;;;13.40;99.90;;;;;;8410201;27;20054;-73
2024/01/29 14:37:28;;;;;;;12.90;7.55;;;13.30;99.90;;;;;;8399140;27;20384;-74
2024/01/29 14:41:29;;;;;;;11.93;6.65;;;13.20;99.90;;;;;;8400325;28;20548;-74
2024/01/29 14:45:31;;;;;;;10.80;7.55;;;13.10;99.90;;;;;;8436015;27;20070;-73
2024/01/29 14:49:33;;;;;;;10.68;6.43;;;13.10;99.90;;;;;;8432370;27;20392;-74
2024/01/29 14:53:35;;;;;;;10.43;6.47;;;13.00;99.90;;;;;;8408466;27;20740;-73
2024/01/29 14:57:37;;;;;;;9.95;6.63;;;13.00;99.90;;;;;;8400878;28;20183;-74
2024/01/29 15:01:39;;;;;;;9.45;6.20;;;12.90;99.90;;;;;;8409480;28;20047;-74
2024/01/29 15:05:44;;;;;;;9.63;6.45;;;12.90;99.90;;;;;;8428917;28;20098;-73
2024/01/29 15:09:47;;;;;;;10.05;6.63;;;12.80;99.90;;;;;;8425403;28;20490;-74
2024/01/29 15:13:50;;;;;;;10.65;6.45;;;12.80;99.90;;;;;;8424785;28;20044;-74
2024/01/29 15:17:54;;;;;;;8.57;5.75;;;12.80;99.90;;;;;;8405669;28;20052;-74
2024/01/29 15:21:56;;;;;;;10.48;6.50;;;12.80;99.90;;;;;;8423987;28;20044;-74
2024/01/29 15:25:59;;;;;;;12.27;7.07;;;12.80;99.90;;;;;;8415270;28;20051;-74
2024/01/29 15:30:00;;;;;;;11.40;7.18;;;12.80;99.90;;;;;;8422390;28;20093;-74
2024/01/29 15:34:02;;;;;;;9.65;6.13;;;12.80;99.90;;;;;;8406458;28;20047;-74
2024/01/29 15:38:06;;;;;;;9.57;6.60;;;12.70;99.90;;;;;;8399917;28;20074;-74
2024/01/29 15:42:14;;;;;;;10.13;6.00;;;12.60;99.90;;;;;;8402571;28;20058;-74
2024/01/29 15:46:15;;;;;;;9.63;6.20;;;12.50;99.90;;;;;;8404206;28;20077;-74
2024/01/29 15:50:17;;;;;;;10.52;6.85;;;12.40;99.90;;;;;;8414034;28;20048;-73
2024/01/29 15:54:19;;;;;;;9.82;6.63;;;12.20;99.90;;;;;;8420162;27;20407;-74
2024/01/29 15:58:23;;;;;;;10.20;5.63;;;12.20;99.90;;;;;;8422918;27;20075;-74
2024/01/29 16:02:25;;;;;;;11.98;6.43;;;12.00;99.90;;;;;;8440694;27;20490;-73
2024/01/29 16:06:27;;;;;;;11.88;6.78;;;12.00;99.90;;;;;;8436351;27;20453;-73
2024/01/29 16:10:29;;;;;;;10.23;6.70;;;11.80;99.90;;;;;;8432076;28;20036;-73
2024/01/29 16:14:31;;;;;;;12.50;6.80;;;11.70;99.90;;;;;;8429862;28;20048;-73
2024/01/29 16:18:33;;;;;;;9.93;6.30;;;11.60;99.90;;;;;;8432075;28;20403;-73
2024/01/29 16:22:35;;;;;;;12.77;6.80;;;11.60;99.90;;;;;;8432616;28;20433;-74
2024/01/29 16:26:36;;;;;;;9.65;6.10;;;11.50;99.90;;;;;;8431281;28;20055;-73
2024/01/29 16:30:38;;;;;;;10.00;6.28;;;11.50;99.90;;;;;;8431684;28;20047;-74
2024/01/29 16:34:41;;;;;;;10.10;6.40;;;11.40;99.90;;;;;;8422143;28;20108;-74
2024/01/29 16:38:42;;;;;;;13.05;7.50;;;11.40;99.90;;;;;;8412481;28;20043;-74
2024/01/29 16:42:44;;;;;;;10.73;6.90;;;11.30;99.90;;;;;;8426987;28;20055;-74
2024/01/29 16:46:46;;;;;;;10.52;6.47;;;11.20;99.90;;;;;;8423498;28;20450;-74
2024/01/29 16:50:48;;;;;;;12.98;5.85;;;11.20;99.90;;;;;;8423126;27;20044;-73
2024/01/29 16:54:50;;;;;;;10.10;6.07;;;11.20;99.90;;;;;;8428610;27;20054;-73
2024/01/29 16:59:05;;;;;;;9.65;6.10;;;11.10;99.90;;;;;;8426216;28;20055;-74
2024/01/29 17:03:07;;;;;;;11.55;6.20;;;11.10;99.90;;;;;;8426042;28;20054;-74
2024/01/29 17:07:08;;;;;;;11.20;6.47;;;11.00;99.90;;;;;;8427098;27;20044;-73
2024/01/29 17:11:13;;;;;;;10.00;6.30;;;10.90;99.90;;;;;;8426166;27;20051;-74
2024/01/29 17:15:15;;;;;;;10.70;6.50;;;10.80;99.90;;;;;;8426565;27;20047;-73
2024/01/29 17:19:17;;;;;;;9.85;6.40;;;10.70;99.90;;;;;;8431812;27;20050;-74
2024/01/29 17:23:19;;;;;;;10.63;6.10;;;10.60;99.90;;;;;;8425279;27;20085;-73
2024/01/29 17:27:21;;;;;;;9.55;6.20;;;10.60;99.90;;;;;;8428629;27;20112;-74
2024/01/29 17:31:23;;;;;;;9.65;5.95;;;10.40;99.90;;;;;;8430969;27;20044;-73
2024/01/29 17:35:25;;;;;;;10.15;6.07;;;10.30;99.90;;;;;;8425564;27;20096;-74
2024/01/29 17:39:27;;;;;;;11.40;4.78;;;10.20;99.90;;;;;;8431920;28;20128;-73
2024/01/29 17:43:29;;;;;;;10.23;6.13;;;10.20;99.90;;;;;;8434608;27;20039;-73
2024/01/29 17:47:31;;;;;;;9.68;6.10;;;10.10;99.90;;;;;;8436346;27;20097;-73
2024/01/29 17:51:33;;;;;;;10.73;5.90;;;10.10;99.90;;;;;;8428983;27;20047;-73
2024/01/29 17:55:37;;;;;;;9.48;5.90;;;10.00;99.90;;;;;;8400932;28;21105;-73
2024/01/29 17:59:39;;;;;;;10.65;6.10;;;9.90;99.90;;;;;;8421646;27;20052;-73
2024/01/29 18:03:41;;;;;;;11.73;5.93;;;9.80;99.90;;;;;;8417465;28;20112;-73
2024/01/29 18:13:05;;;;;;;13.90;6.45;;;9.70;99.90;;;;;;8434535;28;20046;-73
2024/01/29 18:17:07;;;;;;;10.15;5.78;;;9.70;99.90;;;;;;8427373;28;20081;-74
2024/01/29 18:21:08;;;;;;;12.88;6.90;;;9.60;99.90;;;;;;8428429;27;20774;-73
2024/01/29 18:25:10;;;;;;;10.15;5.88;;;9.60;99.90;;;;;;8422947;28;20040;-73
2024/01/29 18:29:13;;;;;;;10.07;6.38;;;9.50;99.90;;;;;;8428170;28;20044;-74
2024/01/29 18:34:05;;;;;;;9.65;6.03;;;9.40;99.90;;;;;;8412069;28;20036;-73
2024/01/29 18:38:06;;;;;;;10.35;6.28;;;9.40;99.90;;;;;;8418107;27;20047;-73
2024/01/29 18:42:08;;;;;;;12.15;6.68;;;9.40;99.90;;;;;;8438123;27;20071;-73
2024/01/29 18:46:15;;;;;;;12.15;6.97;;;9.40;99.90;;;;;;8426303;27;20054;-74
2024/01/29 18:50:17;;;;;;;12.40;6.78;;;9.40;99.90;;;;;;8410448;27;20052;-74
2024/01/29 18:54:20;;;;;;;12.75;7.50;;;9.50;99.90;;;;;;8410836;27;20139;-73
2024/01/29 18:58:22;;;;;;;11.05;6.80;;;9.60;99.90;;;;;;8427718;27;20051;-73
2024/01/29 19:02:25;;;;;;;16.88;6.93;;;9.60;99.90;;;;;;8422115;28;20058;-73
2024/01/29 19:06:27;;;;;;;10.88;6.60;;;9.60;99.90;;;;;;8407221;28;20036;-73
2024/01/29 19:10:30;;;;;;;13.45;7.25;;;9.70;99.90;;;;;;8426458;27;20825;-73
2024/01/29 19:14:31;;;;;;;12.70;6.82;;;9.70;99.90;;;;;;8418651;28;20048;-73
2024/01/29 19:24:17;;;;;;;13.07;7.30;;;9.70;99.90;;;;;;8426667;27;20542;-73
2024/01/29 19:28:19;;;;;;;10.73;6.75;;;9.70;99.90;;;;;;8409138;28;20568;-73
2024/01/29 19:33:18;;;;;;;11.60;7.32;;;9.70;99.90;;;;;;8416547;28;20096;-74
2024/01/29 19:37:22;;;;;;;12.15;7.78;;;9.60;99.90;;;;;;8411080;28;20169;-73
2024/01/29 19:41:24;;;;;;;11.98;7.65;;;9.60;99.90;;;;;;8432342;28;20058;-73
2024/01/29 19:45:26;;;;;;;13.25;7.10;;;9.60;99.90;;;;;;8431011;28;20047;-73
2024/01/29 19:49:28;;;;;;;13.52;7.78;;;9.60;99.90;;;;;;8423928;28;20153;-73
2024/01/29 19:53:30;;;;;;;11.57;7.50;;;9.50;99.90;;;;;;8425734;28;20537;-73
2024/01/29 19:57:32;;;;;;;11.07;7.53;;;9.50;99.90;;;;;;8425167;28;20039;-74
2024/01/29 20:01:34;;;;;;;12.07;7.47;;;9.50;99.90;;;;;;8407885;28;20105;-74
2024/01/29 20:05:36;;;;;;;11.15;7.43;;;9.50;99.90;;;;;;8426195;28;20040;-73
2024/01/29 20:09:38;;;;;;;13.77;7.25;;;9.60;99.90;;;;;;8433767;28;20052;-73
2024/01/29 20:13:40;;;;;;;16.25;8.30;;;9.50;99.90;;;;;;8434493;28;20048;-73
2024/01/29 20:17:41;;;;;;;13.73;8.18;;;9.60;99.90;;;;;;8423288;28;20427;-73
2024/01/29 20:21:43;;;;;;;11.52;7.55;;;9.60;99.90;;;;;;8422224;28;20055;-73
2024/01/29 20:25:48;;;;;;;13.65;8.82;;;9.60;99.90;;;;;;8411616;28;20079;-73
2024/01/29 20:29:50;;;;;;;11.73;7.25;;;9.60;99.90;;;;;;8421217;28;20562;-73
2024/01/29 20:33:53;;;;;;;11.88;7.60;;;9.60;99.90;;;;;;8416079;28;20492;-73
2024/01/29 20:37:55;;;;;;;13.57;7.63;;;9.60;99.90;;;;;;8416896;27;20082;-73
2024/01/29 20:41:58;;;;;;;13.20;7.97;;;9.50;99.90;;;;;;8430855;27;20070;-73
2024/01/29 20:46:01;;;;;;;11.57;7.10;;;9.50;99.90;;;;;;8413791;27;20051;-74
2024/01/29 20:50:04;;;;;;;16.17;8.77;;;9.50;99.90;;;;;;8432893;27;20478;-73
2024/01/29 20:54:07;;;;;;;13.27;7.85;;;9.40;99.90;;;;;;8423294;27;20056;-74
2024/01/29 20:58:09;;;;;;;14.60;8.10;;;9.40;99.90;;;;;;8428473;28;20098;-74
2024/01/29 21:02:11;;;;;;;14.32;8.43;;;9.40;99.90;;;;;;8431281;27;20050;-74
2024/01/29 21:06:13;;;;;;;13.38;8.73;;;9.40;99.90;;;;;;8407210;27;20059;-73
2024/01/29 21:10:15;;;;;;;12.07;7.70;;;9.40;99.90;;;;;;8420261;27;20049;-74
2024/01/29 21:14:17;;;;;;;12.38;7.88;;;9.40;99.90;;;;;;8436761;27;20480;-73
2024/01/29 21:18:19;;;;;;;13.27;7.65;;;9.40;99.90;;;;;;8427536;27;20055;-73
2024/01/29 21:22:21;;;;;;;15.10;8.32;;;9.40;99.90;;;;;;8430631;27;20052;-73
2024/01/29 21:26:27;;;;;;;13.82;8.00;;;9.40;99.90;;;;;;8428545;27;20479;-74
2024/01/29 21:30:29;;;;;;;10.80;6.95;;;9.30;99.90;;;;;;8428878;27;20074;-73
2024/01/29 21:34:31;;;;;;;13.80;7.80;;;9.20;99.90;;;;;;8429598;28;20480;-73
2024/01/29 21:38:33;;;;;;;13.10;7.25;;;9.20;99.90;;;;;;8408550;27;20037;-73
2024/01/29 21:42:34;;;;;;;13.57;7.75;;;9.20;99.90;;;;;;8429055;27;20051;-73
2024/01/29 21:46:36;;;;;;;11.50;7.18;;;9.20;99.90;;;;;;8426430;27;20048;-73
2024/01/29 21:50:38;;;;;;;11.55;7.05;;;9.20;99.90;;;;;;8414668;27;20044;-74
2024/01/29 21:54:40;;;;;;;10.02;6.35;;;9.20;99.90;;;;;;8431455;27;20056;-73
2024/01/29 21:58:42;;;;;;;9.77;5.95;;;9.20;99.90;;;;;;8409345;28;20051;-74